Time;durP1;ratioP1;P1;durP2;ratioP2;P2;SDS_P1;SDS_P2;PMS_P1;PMS_P2;Temp;Humidity;BMP_temperature;BMP_pressure;BME280_temperature;BME280_humidity;BME280_pressure;Samples;Min_cycle;Max_cycle;Signal;HPM_P1;HPM_P2
2021/12/25 00:02:01;;;;;;;1.75;0.90;;;;;;;10.13;82.32;98880.19;6193478;23;20050;-75
2021/12/25 00:05:18;;;;;;;;;;;;;;;;;;;;;
2021/12/25 00:07:44;;;;;;;0.28;0.28;;;;;;;10.10;82.71;98875.31;6248236;23;20074;-76
2021/12/25 00:10:14;;;;;;;0.85;0.60;;;;;;;10.05;82.27;98867.25;6239550;23;20008;-75
2021/12/25 00:12:39;;;;;;;2.03;0.73;;;;;;;10.09;82.27;98862.78;6242962;23;20012;-76
2021/12/25 00:15:07;;;;;;;0.68;0.50;;;;;;;10.28;82.79;98892.78;6244318;22;20004;-75
2021/12/25 00:17:35;;;;;;;0.60;0.60;;;;;;;10.25;82.32;98887.88;6238864;23;20026;-76
2021/12/25 00:20:01;;;;;;;5.93;1.83;;;;;;;10.41;82.78;98899.38;6215266;23;20028;-76
2021/12/25 00:22:27;;;;;;;2.70;2.50;;;;;;;10.38;81.67;98889.88;6244916;22;20365;-81
2021/12/25 00:24:53;;;;;;;2.42;2.20;;;;;;;10.37;82.25;98890.19;6241369;23;20008;-76
2021/12/25 00:28:14;;;;;;;;;;;;;;;;;;;;;
2021/12/25 00:30:15;;;;;;;2.42;2.08;;;;;;;10.46;81.95;98905.56;6211319;23;20051;-75
2021/12/25 00:32:54;;;;;;;2.50;2.30;;;;;;;10.51;81.88;98912.84;6236304;23;20100;-73
2021/12/25 00:35:23;;;;;;;2.03;1.92;;;;;;;10.44;82.26;98902.34;6237791;22;20008;-73
2021/12/25 00:37:49;;;;;;;1.90;1.80;;;;;;;10.47;82.08;98917.31;6237981;23;20000;-73
2021/12/25 00:40:22;;;;;;;1.77;1.67;;;;;;;10.34;81.74;98912.63;6212983;23;20014;-72
2021/12/25 00:42:50;;;;;;;1.55;1.45;;;;;;;10.39;82.00;98926.22;6239476;23;20004;-72
2021/12/25 00:45:15;;;;;;;1.60;1.50;;;;;;;10.36;83.06;98927.63;6240115;22;20008;-73
2021/12/25 00:47:44;;;;;;;1.42;1.42;;;;;;;10.28;82.78;98911.91;6242185;22;20008;-73
2021/12/25 00:50:16;;;;;;;2.22;2.03;;;;;;;10.27;82.90;98913.81;6240816;22;20083;-73
2021/12/25 00:52:42;;;;;;;2.50;2.30;;;;;;;10.36;82.50;98924.88;6238569;23;20427;-73
2021/12/25 00:55:08;;;;;;;1.77;1.67;;;;;;;10.29;82.92;98903.41;6238763;22;20004;-74
2021/12/25 00:57:58;;;;;;;1.98;1.88;;;;;;;10.27;82.87;98908.34;6238596;22;20031;-74
2021/12/25 01:00:20;;;;;;;1.08;1.08;;;;;;;10.24;83.00;98900.75;6235931;23;20010;-72
2021/12/25 01:02:49;;;;;;;1.15;1.15;;;;;;;10.38;82.75;98919.13;6242089;23;20308;-74
2021/12/25 01:05:25;;;;;;;1.00;1.00;;;;;;;10.51;82.30;98923.78;6214888;23;20012;-79
2021/12/25 01:08:00;;;;;;;1.33;1.33;;;;;;;10.42;82.36;98901.00;6239928;23;20008;-73
2021/12/25 01:10:32;;;;;;;1.67;1.45;;;;;;;10.55;82.61;98913.88;6241576;22;20442;-74
2021/12/25 01:13:51;;;;;;;0.90;0.90;;;;;;;10.55;82.17;98924.81;6242667;22;20027;-73
2021/12/25 01:16:02;;;;;;;1.73;0.90;;;;;;;10.56;82.46;98934.63;6219548;22;20044;-75
2021/12/25 01:24:31;;;;;;;1.48;1.38;;;;;;;10.46;82.34;98940.28;6242510;23;20074;-74
2021/12/25 01:29:44;;;;;;;1.40;1.00;;;;;;;10.38;82.31;98914.47;6250254;22;20012;-74
2021/12/25 01:48:40;;;;;;;1.58;0.38;;;;;;;10.40;82.67;98942.31;6238401;23;20641;-74
2021/12/25 01:51:14;;;;;;;0.50;0.25;;;;;;;10.37;82.34;98925.72;6240598;22;20012;-74
2021/12/25 01:53:42;;;;;;;0.70;0.30;;;;;;;10.45;82.26;98931.28;6240152;22;20019;-74
2021/12/25 01:56:08;;;;;;;0.20;0.20;;;;;;;10.50;82.72;98927.66;6240432;23;20082;-72
2021/12/25 01:58:34;;;;;;;0.20;0.20;;;;;;;10.56;82.30;98920.97;6260760;22;20103;-74
2021/12/25 02:01:01;;;;;;;0.00;0.00;;;;;;;10.64;82.08;98925.75;6270701;22;20014;-73
2021/12/25 02:03:31;;;;;;;0.22;0.20;;;;;;;10.73;82.02;98941.41;6243982;22;20004;-73
2021/12/25 02:06:00;;;;;;;0.20;0.20;;;;;;;10.70;82.28;98931.91;6244538;22;19996;-73
2021/12/25 02:08:37;;;;;;;;;;;;;;;;;;;;;
2021/12/25 02:11:06;;;;;;;0.77;0.65;;;;;;;10.80;82.01;98941.81;6270174;22;20472;-74
2021/12/25 02:13:32;;;;;;;0.77;0.75;;;;;;;10.76;81.99;98938.06;6243997;22;20817;-73
2021/12/25 02:15:59;;;;;;;2.83;1.27;;;;;;;10.74;82.43;98937.56;6247047;22;20042;-76
2021/12/25 02:18:55;;;;;;;1.70;1.60;;;;;;;10.81;82.07;98955.19;6268517;22;20418;-77
2021/12/25 02:21:20;;;;;;;0.90;0.90;;;;;;;10.76;82.25;98935.34;6272547;22;20012;-75
2021/12/25 02:23:48;;;;;;;1.08;0.90;;;;;;;10.72;81.79;98931.59;6269795;22;20018;-75
2021/12/25 02:26:16;;;;;;;0.90;0.90;;;;;;;10.78;81.95;98947.59;6246306;22;20082;-74
2021/12/25 02:28:42;;;;;;;0.68;0.68;;;;;;;10.64;81.98;98933.13;6271886;22;20008;-75
2021/12/25 02:31:16;;;;;;;0.50;0.50;;;;;;;10.64;81.31;98938.56;6246366;22;20023;-75
2021/12/25 02:33:42;;;;;;;0.68;0.68;;;;;;;10.53;81.26;98945.34;6219226;22;20042;-75
2021/12/25 02:36:10;;;;;;;0.63;0.63;;;;;;;10.44;80.94;98948.78;6275327;22;20007;-75
2021/12/25 02:38:36;;;;;;;0.38;0.38;;;;;;;10.38;81.34;98957.38;6246441;22;20000;-76
2021/12/25 02:41:08;;;;;;;0.60;0.60;;;;;;;10.26;81.79;98944.97;6275353;22;20003;-77
2021/12/25 02:43:33;;;;;;;0.45;0.45;;;;;;;10.25;81.75;98951.56;6280623;22;20003;-76
2021/12/25 02:46:02;;;;;;;0.40;0.40;;;;;;;10.25;81.64;98951.56;6259087;22;20098;-75
2021/12/25 02:48:28;;;;;;;0.65;0.65;;;;;;;10.22;81.61;98949.44;6295195;22;20018;-76
2021/12/25 02:50:57;;;;;;;0.30;0.30;;;;;;;10.20;82.03;98946.16;6268187;22;20012;-76
2021/12/25 02:53:22;;;;;;;0.10;0.10;;;;;;;10.21;81.65;98944.25;6268948;22;20003;-74
2021/12/25 02:55:48;;;;;;;1.17;0.20;;;;;;;10.20;81.76;98940.69;6265573;22;20014;-75
2021/12/25 02:58:15;;;;;;;0.30;0.30;;;;;;;10.19;81.87;98943.72;6294108;22;20028;-75
2021/12/25 03:00:54;;;;;;;0.38;0.38;;;;;;;10.13;81.97;98923.88;6291663;22;20111;-77
2021/12/25 03:03:25;;;;;;;0.43;0.43;;;;;;;10.11;82.05;98923.38;6244546;22;20014;-76
2021/12/25 03:05:53;;;;;;;0.50;0.50;;;;;;;10.11;81.98;98937.03;6274398;22;20486;-76
2021/12/25 03:08:20;;;;;;;0.50;0.50;;;;;;;10.13;81.65;98940.28;6247191;22;20004;-77
2021/12/25 03:10:56;;;;;;;0.50;0.50;;;;;;;10.10;81.56;98940.88;6221689;22;20373;-77
2021/12/25 03:13:44;;;;;;;0.20;0.20;;;;;;;10.04;81.50;98937.41;6245004;22;20098;-76
2021/12/25 03:16:11;;;;;;;0.30;0.30;;;;;;;10.10;81.72;98947.19;6223773;22;20034;-76
2021/12/25 03:18:46;;;;;;;0.40;0.40;;;;;;;10.05;82.03;98938.25;6273016;22;20004;-76
2021/12/25 03:21:12;;;;;;;0.40;0.40;;;;;;;10.04;81.33;98942.88;6246023;22;19999;-76
2021/12/25 03:23:38;;;;;;;0.20;0.20;;;;;;;10.01;82.00;98942.69;6246327;22;20322;-76
2021/12/25 03:26:06;;;;;;;0.20;0.20;;;;;;;9.96;81.97;98936.19;6270459;22;20007;-77
2021/12/25 03:28:36;;;;;;;0.22;0.17;;;;;;;9.91;81.54;98921.81;6245159;22;20011;-77
2021/12/25 03:31:13;;;;;;;0.30;0.30;;;;;;;9.82;81.46;98918.94;6248107;22;19999;-77
2021/12/25 03:33:59;;;;;;;;;;;;;;;;;;;;;
2021/12/25 03:36:25;;;;;;;0.20;0.20;;;;;;;9.87;81.84;98929.78;6271454;22;20070;-76
2021/12/25 03:38:51;;;;;;;0.10;0.10;;;;;;;9.91;81.52;98944.44;6242276;22;20403;-77
2021/12/25 03:41:26;;;;;;;0.20;0.20;;;;;;;9.73;82.01;98923.47;6273940;22;20007;-76
2021/12/25 03:44:02;;;;;;;0.10;0.10;;;;;;;9.90;81.97;98961.97;6221689;22;20058;-76
2021/12/25 03:46:40;;;;;;;0.10;0.10;;;;;;;9.88;82.15;98950.50;6247580;22;20004;-77
2021/12/25 03:49:24;;;;;;;0.10;0.10;;;;;;;9.78;81.95;98928.84;6247858;22;20031;-75
2021/12/25 04:00:07;;;;;;;0.20;0.20;;;;;;;9.70;81.72;98948.63;6252258;22;20495;-76
2021/12/25 04:02:52;;;;;;;;;;;;;;;;;;;;;
2021/12/25 04:05:20;;;;;;;0.20;0.20;;;;;;;9.65;81.89;98935.03;6273616;22;20078;-75
2021/12/25 04:10:27;;;;;;;0.10;0.10;;;;;;;9.60;81.59;98950.38;6282405;22;20401;-75
2021/12/25 04:12:53;;;;;;;0.10;0.10;;;;;;;9.56;81.69;98960.28;6272615;22;20004;-76
2021/12/25 04:15:18;;;;;;;0.00;0.00;;;;;;;9.58;81.83;98968.97;6271822;22;20011;-76
2021/12/25 04:17:44;;;;;;;0.10;0.10;;;;;;;9.48;81.40;98957.41;6247147;22;20090;-74
2021/12/25 04:20:12;;;;;;;0.13;0.13;;;;;;;9.45;81.97;98969.72;6246242;22;20027;-73
2021/12/25 04:22:53;;;;;;;0.30;0.10;;;;;;;9.41;81.81;98974.13;6220874;22;20034;-75
2021/12/25 04:25:24;;;;;;;0.10;0.10;;;;;;;9.40;81.92;98972.50;6243708;22;20008;-75
2021/12/25 04:27:53;;;;;;;0.10;0.10;;;;;;;9.36;81.86;98972.28;6271475;22;20016;-76
2021/12/25 04:30:29;;;;;;;0.00;0.00;;;;;;;9.38;82.33;98981.00;6246161;22;20003;-76
2021/12/25 04:50:07;;;;;;;0.22;0.22;;;;;;;9.25;82.66;98976.25;6274253;22;20014;-74
2021/12/25 05:06:03;;;;;;;0.20;0.20;;;;;;;9.40;82.44;98972.50;6275596;22;20003;-75
2021/12/25 05:08:29;;;;;;;0.15;0.15;;;;;;;9.36;82.01;98972.28;6269910;22;20035;-75
2021/12/25 05:10:58;;;;;;;1.13;0.40;;;;;;;9.34;81.92;98979.16;6244685;22;20011;-76
2021/12/25 05:13:23;;;;;;;0.20;0.20;;;;;;;9.38;81.75;98980.19;6275330;22;20004;-75
2021/12/25 05:15:49;;;;;;;0.20;0.20;;;;;;;9.45;82.22;98997.00;6268283;22;20509;-75
2021/12/25 05:18:14;;;;;;;0.20;0.20;;;;;;;9.38;81.86;98986.44;6244934;22;20039;-75
2021/12/25 05:20:40;;;;;;;0.20;0.20;;;;;;;9.37;82.04;98984.81;6270833;22;20010;-76
2021/12/25 05:23:06;;;;;;;0.20;0.20;;;;;;;9.40;81.91;98988.88;6219280;22;20065;-76
2021/12/25 05:25:35;;;;;;;0.20;0.20;;;;;;;9.46;81.80;99001.34;6244529;22;20019;-76
2021/12/25 05:28:01;;;;;;;0.20;0.20;;;;;;;9.44;82.13;99003.56;6272178;22;20046;-76
2021/12/25 05:30:29;;;;;;;0.15;0.15;;;;;;;9.47;82.13;98999.44;6270644;22;19999;-75
2021/12/25 05:32:54;;;;;;;0.20;0.20;;;;;;;9.45;82.12;98997.00;6222163;22;20062;-75
2021/12/25 05:35:20;;;;;;;0.20;0.20;;;;;;;9.45;81.86;98991.56;6248127;22;20564;-75
2021/12/25 05:37:48;;;;;;;0.20;0.20;;;;;;;9.48;81.79;99001.88;6269868;22;20004;-75
2021/12/25 05:40:14;;;;;;;0.15;0.15;;;;;;;9.45;81.70;98991.56;6247719;22;20492;-75
2021/12/25 05:42:40;;;;;;;0.10;0.10;;;;;;;9.45;81.32;98986.09;6271572;22;20017;-75
2021/12/25 05:45:07;;;;;;;0.10;0.10;;;;;;;9.47;81.59;98989.31;6268402;22;20003;-76
2021/12/25 05:47:32;;;;;;;0.10;0.10;;;;;;;9.48;82.02;98990.97;6221996;22;20012;-75
2021/12/25 05:49:58;;;;;;;0.15;0.15;;;;;;;9.50;81.36;98999.66;6196793;22;20041;-75
2021/12/25 05:52:27;;;;;;;0.30;0.30;;;;;;;9.42;81.58;98986.69;6272487;22;20016;-75
2021/12/25 05:54:52;;;;;;;0.10;0.10;;;;;;;9.46;81.65;98993.16;6245345;22;20057;-75
2021/12/25 05:57:23;;;;;;;0.30;0.30;;;;;;;9.44;81.77;98990.72;6239116;22;20086;-75
2021/12/25 05:59:48;;;;;;;0.10;0.10;;;;;;;9.47;81.53;98989.31;6246158;22;19995;-75
2021/12/25 06:02:13;;;;;;;0.10;0.10;;;;;;;9.43;81.70;98988.28;6272467;22;20012;-74
2021/12/25 06:04:44;;;;;;;0.32;0.32;;;;;;;9.42;81.41;98997.59;6247808;22;20022;-78
2021/12/25 06:07:10;;;;;;;0.30;0.30;;;;;;;9.41;81.70;99001.44;6245950;22;20016;-77
2021/12/25 06:09:38;;;;;;;0.10;0.10;;;;;;;9.35;81.66;98997.94;6273163;22;20008;-77
2021/12/25 06:12:10;;;;;;;0.30;0.30;;;;;;;9.30;81.31;98983.56;6249097;22;20090;-77
2021/12/25 06:14:35;;;;;;;0.32;0.30;;;;;;;9.36;82.02;99004.22;6199792;22;20004;-75
2021/12/25 06:17:03;;;;;;;0.25;0.25;;;;;;;9.22;81.56;98982.31;6248689;22;20003;-75
2021/12/25 06:19:31;;;;;;;0.32;0.32;;;;;;;9.37;81.59;99008.56;6241198;22;20003;-76
2021/12/25 06:22:04;;;;;;;0.30;0.30;;;;;;;9.22;81.47;98983.09;6273034;22;20015;-75
2021/12/25 06:24:30;;;;;;;0.65;0.60;;;;;;;9.33;81.37;99010.25;6217988;22;20169;-75
2021/12/25 06:26:58;;;;;;;0.40;0.40;;;;;;;9.40;81.37;99016.16;6241609;22;20012;-73
2021/12/25 06:29:24;;;;;;;0.75;0.65;;;;;;;9.33;81.69;98999.34;6271606;22;20019;-75
2021/12/25 06:32:00;;;;;;;0.40;0.40;;;;;;;9.23;81.54;98990.19;6269039;22;20012;-75
2021/12/25 06:34:28;;;;;;;0.68;0.68;;;;;;;9.37;81.23;99005.84;6271812;22;20078;-74
2021/12/25 06:36:56;;;;;;;0.60;0.60;;;;;;;9.32;81.83;98995.00;6274008;22;20384;-75
2021/12/25 06:39:31;;;;;;;0.60;0.60;;;;;;;9.28;81.00;98989.31;6224291;22;20015;-74
2021/12/25 06:41:58;;;;;;;0.43;0.40;;;;;;;9.32;81.73;98987.63;6246656;22;20031;-74
2021/12/25 06:44:27;;;;;;;0.25;0.25;;;;;;;9.48;81.29;99006.53;6268891;22;20026;-74
2021/12/25 06:46:53;;;;;;;0.38;0.38;;;;;;;9.49;81.19;99013.59;6272847;22;20420;-75
2021/12/25 06:49:19;;;;;;;0.40;0.40;;;;;;;9.40;81.43;99000.63;6239274;22;20008;-74
2021/12/25 06:51:52;;;;;;;0.40;0.40;;;;;;;9.35;81.41;98994.41;6243414;22;20107;-74
2021/12/25 06:54:18;;;;;;;0.30;0.30;;;;;;;9.52;81.38;99008.38;6268133;22;20034;-74
2021/12/25 06:56:45;;;;;;;0.30;0.30;;;;;;;9.51;81.78;99006.75;6243722;22;20016;-73
2021/12/25 06:59:11;;;;;;;0.32;0.32;;;;;;;9.49;81.54;99003.50;6217900;22;20495;-74
2021/12/25 07:01:38;;;;;;;0.30;0.30;;;;;;;9.55;81.62;99012.41;6243987;22;20003;-74
2021/12/25 07:04:12;;;;;;;0.30;0.30;;;;;;;9.61;81.61;99022.97;6243451;22;20061;-74
2021/12/25 07:06:39;;;;;;;0.30;0.30;;;;;;;9.57;81.80;99013.75;6243046;22;20000;-73
2021/12/25 07:09:07;;;;;;;0.40;0.40;;;;;;;9.61;81.48;99006.59;6242314;22;20091;-74
2021/12/25 07:11:33;;;;;;;0.50;0.50;;;;;;;9.64;80.70;99016.13;6243960;22;20755;-74
2021/12/25 07:14:03;;;;;;;0.55;0.55;;;;;;;9.57;81.49;99000.09;6270560;22;20023;-75
2021/12/25 07:16:29;;;;;;;0.60;0.60;;;;;;;9.70;81.35;99023.13;6218919;22;20007;-74
2021/12/25 07:18:57;;;;;;;0.60;0.60;;;;;;;9.70;81.29;99014.16;6274146;22;19996;-75
2021/12/25 07:21:23;;;;;;;0.68;0.68;;;;;;;9.66;81.02;99019.38;6246197;22;20054;-74
2021/12/25 07:23:57;;;;;;;1.08;1.08;;;;;;;9.70;81.37;99008.69;6221807;22;20011;-74
2021/12/25 07:26:30;;;;;;;0.80;0.80;;;;;;;9.73;81.01;99019.00;6244798;22;20065;-75
2021/12/25 07:28:56;;;;;;;0.90;0.90;;;;;;;9.70;81.16;99014.16;6246656;22;20003;-75
2021/12/25 07:31:22;;;;;;;0.82;0.82;;;;;;;9.74;81.20;99017.91;6247319;22;20014;-75
2021/12/25 07:33:50;;;;;;;0.82;0.82;;;;;;;9.76;81.53;99023.88;6247982;22;20549;-77
2021/12/25 07:36:16;;;;;;;0.50;0.50;;;;;;;9.76;81.17;99021.16;6243441;22;20003;-75
2021/12/25 07:38:42;;;;;;;0.68;0.68;;;;;;;9.85;81.71;99035.75;6247209;22;20307;-77
2021/12/25 07:41:12;;;;;;;0.63;0.63;;;;;;;9.80;81.31;99014.00;6244161;22;20031;-77
2021/12/25 07:43:40;;;;;;;1.23;1.23;;;;;;;9.80;81.11;99019.47;6246895;22;20422;-76
2021/12/25 07:46:06;;;;;;;1.08;1.08;;;;;;;9.78;81.21;99013.47;6247124;22;20027;-77
2021/12/25 07:48:36;;;;;;;0.93;0.93;;;;;;;9.87;81.16;99019.06;6273631;22;20027;-77
2021/12/25 07:51:05;;;;;;;1.25;1.20;;;;;;;9.93;81.13;99028.84;6275125;22;20344;-77
2021/12/25 07:53:43;;;;;;;;;;;;;;;;;;;;;
2021/12/25 07:56:13;;;;;;;1.23;1.13;;;;;;;9.88;80.96;99016.03;6270338;22;20075;-75
2021/12/25 07:58:38;;;;;;;0.60;0.60;;;;;;;10.03;81.03;99036.03;6254619;22;20030;-75
2021/12/25 08:01:04;;;;;;;0.80;0.80;;;;;;;9.95;81.02;99021.16;6288476;22;20011;-77
2021/12/25 08:03:29;;;;;;;1.00;1.00;;;;;;;10.03;80.96;99025.94;6245599;22;20004;-76
2021/12/25 08:06:00;;;;;;;2.92;0.98;;;;;;;9.99;81.12;99024.06;6246340;22;20034;-74
2021/12/25 08:08:28;;;;;;;0.95;0.93;;;;;;;10.04;81.28;99030.28;6245007;22;20034;-75
2021/12/25 08:10:58;;;;;;;0.93;0.93;;;;;;;10.08;81.34;99030.50;6271664;22;19996;-75
2021/12/25 08:13:24;;;;;;;1.88;1.77;;;;;;;10.12;81.50;99045.22;6197028;22;20034;-75
2021/12/25 08:15:50;;;;;;;1.15;1.05;;;;;;;10.06;80.84;99046.38;6240468;22;20341;-74
2021/12/25 08:18:15;;;;;;;1.40;1.30;;;;;;;10.08;80.99;99035.97;6272499;22;20077;-74
2021/12/25 08:20:41;;;;;;;1.88;1.77;;;;;;;10.15;80.75;99039.16;6243965;22;20000;-75
2021/12/25 08:23:07;;;;;;;1.95;1.85;;;;;;;10.19;81.01;99045.66;6273235;22;20007;-73
2021/12/25 08:25:33;;;;;;;1.90;1.80;;;;;;;10.19;80.65;99045.66;6246040;22;20082;-74
2021/12/25 08:28:00;;;;;;;2.63;2.42;;;;;;;10.19;80.67;99042.91;6246403;22;20010;-75
2021/12/25 08:30:27;;;;;;;3.05;1.98;;;;;;;10.24;80.67;99045.53;6272453;22;20079;-74
2021/12/25 08:32:55;;;;;;;2.13;1.98;;;;;;;10.28;80.74;99041.13;6271166;22;20011;-74
2021/12/25 08:35:23;;;;;;;5.03;1.92;;;;;;;10.28;80.88;99040.31;6272296;22;20007;-73
2021/12/25 08:37:51;;;;;;;4.35;1.70;;;;;;;10.34;80.40;99032.84;6270330;22;20026;-75
2021/12/25 08:40:20;;;;;;;2.25;2.05;;;;;;;10.36;80.91;99041.56;6219015;22;20083;-76
2021/12/25 08:42:52;;;;;;;1.92;1.83;;;;;;;10.31;80.44;99026.06;6246182;22;20083;-74
2021/12/25 08:45:40;;;;;;;8.07;2.75;;;;;;;10.34;80.68;99024.66;6247514;22;20012;-76
2021/12/25 08:48:10;;;;;;;3.47;2.03;;;;;;;10.37;80.81;99029.53;6272208;22;20003;-77
2021/12/25 08:50:45;;;;;;;4.10;2.58;;;;;;;10.48;80.58;99039.19;6273203;22;20432;-79
2021/12/25 08:53:23;;;;;;;;;;;;;;;;;;;;;
2021/12/25 08:55:51;;;;;;;2.03;1.92;;;;;;;10.42;80.54;99040.38;6273879;22;20391;-78
2021/12/25 08:58:20;;;;;;;3.13;2.38;;;;;;;10.47;80.18;99045.78;6275955;22;20713;-81
2021/12/25 09:00:48;;;;;;;7.32;2.78;;;;;;;10.44;80.71;99027.22;6223012;22;20011;-77
2021/12/25 09:03:14;;;;;;;2.10;2.00;;;;;;;10.48;80.06;99036.44;6274882;22;20314;-75
2021/12/25 09:05:39;;;;;;;3.05;2.65;;;;;;;10.57;80.41;99064.72;6276889;22;20511;-79
2021/12/25 09:08:13;;;;;;;2.60;2.50;;;;;;;10.52;80.38;99062.06;6249422;22;20007;-77
2021/12/25 09:10:38;;;;;;;2.83;2.63;;;;;;;10.52;80.40;99066.75;6245391;22;20004;-77
2021/12/25 09:13:04;;;;;;;2.72;2.53;;;;;;;10.49;80.43;99068.13;6215358;22;20022;-77
2021/12/25 09:15:30;;;;;;;4.53;3.22;;;;;;;10.51;80.85;99071.38;6252597;22;20011;-76
2021/12/25 09:17:58;;;;;;;3.10;2.35;;;;;;;10.46;80.58;99066.00;6280078;22;20004;-75
2021/12/25 09:20:26;;;;;;;2.90;2.60;;;;;;;10.36;80.46;99057.97;6258244;22;20033;-78
2021/12/25 09:22:56;;;;;;;3.85;2.90;;;;;;;10.40;80.44;99070.75;6228118;22;20007;-78
2021/12/25 09:25:32;;;;;;;5.15;2.33;;;;;;;10.45;80.72;99072.56;6255785;22;20013;-77
2021/12/25 09:28:06;;;;;;;2.05;1.92;;;;;;;10.33;80.71;99059.34;6228952;22;20004;-78
2021/12/25 09:30:54;;;;;;;3.03;2.63;;;;;;;10.30;80.39;99060.75;6256073;22;20003;-78
2021/12/25 09:33:41;;;;;;;2.72;2.60;;;;;;;10.35;80.79;99072.75;6229644;22;20008;-78
2021/12/25 09:36:16;;;;;;;1.98;1.88;;;;;;;10.30;80.19;99066.22;6254260;22;20007;-78
2021/12/25 09:39:56;;;;;;;2.75;1.65;;;;;;;10.51;80.91;99087.78;6255093;22;20003;-78
2021/12/25 09:43:22;;;;;;;2.47;2.20;;;;;;;10.36;80.28;99066.97;6256382;22;20003;-80
2021/12/25 09:45:51;;;;;;;5.53;2.88;;;;;;;10.39;80.63;99073.78;6134326;23;20022;-78
2021/12/25 09:48:29;;;;;;;3.63;2.92;;;;;;;10.48;80.50;99083.75;6107119;23;20016;-76
2021/12/25 09:51:15;;;;;;;2.90;2.70;;;;;;;10.48;80.37;99082.91;6242050;22;20003;-77
2021/12/25 09:54:29;;;;;;;2.60;2.50;;;;;;;10.48;80.85;99080.16;6255139;22;20034;-82
2021/12/25 09:56:57;;;;;;;2.78;2.58;;;;;;;10.42;79.99;99064.97;6249669;22;20280;-79
2021/12/25 09:59:26;;;;;;;3.33;2.97;;;;;;;10.47;80.18;99064.91;6245371;22;20031;-78
2021/12/25 10:02:22;;;;;;;3.08;2.75;;;;;;;10.62;80.28;99078.31;6225398;23;20019;-78
2021/12/25 10:05:10;;;;;;;2.55;2.45;;;;;;;10.62;80.71;99086.50;6221293;23;20012;-75
2021/12/25 10:07:40;;;;;;;3.50;3.20;;;;;;;10.58;80.17;99088.19;6223483;23;20326;-76
2021/12/25 10:10:10;;;;;;;4.18;2.65;;;;;;;10.59;80.69;99092.56;6192708;23;20035;-76
2021/12/25 10:12:49;;;;;;;4.13;2.30;;;;;;;10.60;80.44;99096.94;6214660;23;20004;-79
2021/12/25 10:15:18;;;;;;;3.95;2.42;;;;;;;10.63;80.24;99096.34;6219178;23;20391;-78
2021/12/25 10:17:55;;;;;;;4.38;2.47;;;;;;;10.67;79.75;99101.19;6243541;23;20004;-75
2021/12/25 10:20:29;;;;;;;2.47;2.38;;;;;;;10.67;79.95;99101.19;6243773;23;20031;-77
2021/12/25 10:23:09;;;;;;;2.90;2.70;;;;;;;10.68;79.84;99102.84;6214549;23;20004;-74
2021/12/25 10:25:44;;;;;;;4.03;2.88;;;;;;;10.67;80.58;99096.53;6217747;23;20036;-76
2021/12/25 10:28:14;;;;;;;2.67;2.47;;;;;;;10.70;80.09;99100.59;6218209;23;20000;-76
2021/12/25 10:30:51;;;;;;;4.00;3.00;;;;;;;10.70;79.87;99100.59;6217974;23;20008;-75
2021/12/25 10:33:40;;;;;;;3.45;3.20;;;;;;;10.76;80.38;99100.22;6243962;23;20000;-75
2021/12/25 10:36:24;;;;;;;4.65;2.83;;;;;;;10.78;79.96;99106.19;6223370;23;20003;-73
2021/12/25 10:39:09;;;;;;;8.23;3.75;;;;;;;10.80;79.80;99094.97;6238792;23;20004;-76
2021/12/25 10:41:39;;;;;;;5.07;2.97;;;;;;;10.76;80.31;99093.94;6217131;23;20015;-74
2021/12/25 10:44:16;;;;;;;3.70;3.40;;;;;;;10.83;80.19;99102.56;6219823;23;20222;-77
2021/12/25 10:47:01;;;;;;;3.17;2.97;;;;;;;10.77;79.67;99090.91;6221517;23;20001;-77
2021/12/25 10:49:33;;;;;;;6.80;3.42;;;;;;;10.65;80.17;99069.50;6223698;23;20087;-76
2021/12/25 10:52:24;;;;;;;3.97;3.67;;;;;;;10.85;79.78;99091.31;6221099;23;20031;-76
2021/12/25 10:55:05;;;;;;;5.15;3.88;;;;;;;10.76;80.18;99088.47;6246251;23;20003;-76
2021/12/25 10:57:53;;;;;;;5.72;3.85;;;;;;;10.82;80.44;99087.28;6218402;23;20004;-76
2021/12/25 11:00:21;;;;;;;3.83;3.38;;;;;;;10.85;80.05;99086.69;6246083;22;20012;-77
2021/12/25 11:03:00;;;;;;;4.45;4.13;;;;;;;10.75;80.14;99059.50;6277118;22;20004;-77
2021/12/25 11:05:32;;;;;;;3.25;3.05;;;;;;;10.89;80.21;99081.41;6248755;22;20426;-77
2021/12/25 11:08:19;;;;;;;6.60;3.80;;;;;;;10.89;79.36;99086.88;6250716;22;20029;-77
2021/12/25 11:10:56;;;;;;;4.75;3.92;;;;;;;10.88;79.93;99079.78;6247761;22;20008;-76
2021/12/25 11:13:28;;;;;;;4.65;4.07;;;;;;;10.86;80.09;99077.34;6248439;22;20078;-78
2021/12/25 11:16:03;;;;;;;6.18;4.25;;;;;;;10.81;80.12;99069.25;6249943;22;20055;-75
2021/12/25 11:18:50;;;;;;;4.18;3.65;;;;;;;10.86;80.14;99082.00;6266411;22;20003;-75
2021/12/25 11:21:16;;;;;;;8.50;4.60;;;;;;;10.84;79.98;99068.63;6278993;22;19996;-72
2021/12/25 11:23:50;;;;;;;6.75;4.55;;;;;;;10.81;79.50;99058.31;6266071;22;20090;-77
2021/12/25 11:26:16;;;;;;;8.68;4.00;;;;;;;10.80;79.94;99070.34;6241841;22;20019;-75
2021/12/25 11:28:43;;;;;;;5.88;3.83;;;;;;;10.77;79.68;99062.75;6232793;22;20011;-73
2021/12/25 11:31:09;;;;;;;7.97;3.88;;;;;;;10.68;79.96;99050.88;6277539;22;20010;-74
2021/12/25 11:33:34;;;;;;;5.05;4.55;;;;;;;10.68;79.77;99048.16;6276958;22;20027;-76
2021/12/25 11:36:03;;;;;;;4.57;4.20;;;;;;;10.59;79.63;99040.63;6198804;22;20775;-77
2021/12/25 11:42:08;;;;;;;7.50;5.05;;;;;;;10.55;79.94;99034.13;6274753;22;20099;-76
2021/12/25 11:44:42;;;;;;;7.97;3.95;;;;;;;10.56;79.90;99035.78;6276770;22;20014;-77
2021/12/25 11:47:29;;;;;;;4.40;4.05;;;;;;;10.68;80.21;99059.09;6250299;22;19999;-79
2021/12/25 11:50:07;;;;;;;6.18;3.35;;;;;;;10.64;80.25;99043.28;6275054;22;20011;-76
2021/12/25 11:52:44;;;;;;;3.20;2.47;;;;;;;10.62;79.87;99045.50;6247281;22;20008;-77
2021/12/25 11:58:37;;;;;;;3.15;2.95;;;;;;;10.56;80.04;99033.03;6273814;22;20057;-77
2021/12/25 12:01:26;;;;;;;2.47;2.28;;;;;;;10.65;80.53;99044.91;6271612;22;20047;-75
2021/12/25 12:03:57;;;;;;;2.17;1.92;;;;;;;10.69;80.05;99041.56;6276603;22;20069;-78
2021/12/25 12:06:47;;;;;;;3.20;1.95;;;;;;;10.76;80.47;99050.19;6257045;22;20053;-80
2021/12/25 12:10:08;;;;;;;;;;;;;;;;;;;;;
2021/12/25 12:12:50;;;;;;;2.28;2.08;;;;;;;10.68;79.85;99031.75;6277757;22;20079;-79
2021/12/25 12:15:19;;;;;;;2.58;2.10;;;;;;;10.68;80.34;99026.28;6249958;22;20299;-78
2021/12/25 12:17:47;;;;;;;3.28;1.88;;;;;;;10.81;80.21;99042.69;6274616;22;20015;-80
2021/12/25 12:20:33;;;;;;;4.13;1.90;;;;;;;10.82;80.18;99038.06;6220095;22;20442;-74
2021/12/25 12:23:06;;;;;;;1.75;1.25;;;;;;;10.90;80.24;99037.34;6271890;22;20008;-77
2021/12/25 12:28:14;;;;;;;1.27;1.10;;;;;;;10.92;80.09;99028.84;6288547;22;20007;-80
2021/12/25 12:30:43;;;;;;;4.88;1.63;;;;;;;10.82;80.51;99011.50;6277635;22;20329;-77
2021/12/25 12:33:19;;;;;;;1.60;1.50;;;;;;;10.99;79.99;99031.97;6275226;22;19999;-77
2021/12/25 12:35:46;;;;;;;;;;;;;;;11.04;80.40;99029.16;6250154;22;20264;-77
2021/12/25 12:38:27;;;;;;;2.15;1.55;;;;;;;11.03;79.76;99022.06;6276405;22;19907;-77
2021/12/25 12:41:14;;;;;;;7.57;2.13;;;;;;;11.03;80.13;99026.72;6275121;22;19995;-75
2021/12/25 12:44:11;;;;;;;5.80;1.55;;;;;;;11.04;79.65;99026.44;6250010;22;20041;-77
2021/12/25 12:46:50;;;;;;;5.60;2.40;;;;;;;11.03;80.21;99021.25;6231054;22;20035;-77
2021/12/25 12:49:28;;;;;;;5.60;1.92;;;;;;;10.88;80.25;99005.94;6254535;22;20007;-76
2021/12/25 12:52:49;;;;;;;1.67;1.58;;;;;;;10.96;80.50;99013.44;6250774;22;20002;-76
2021/12/25 12:56:12;;;;;;;;;;;;;;;;;;;;;
2021/12/25 13:02:39;;;;;;;2.85;1.50;;;;;;;10.69;80.03;98989.63;6164859;23;20027;-77
2021/12/25 13:05:30;;;;;;;4.07;2.63;;;;;;;10.81;80.36;99003.63;6219159;23;20015;-75
2021/12/25 13:07:58;;;;;;;3.55;2.17;;;;;;;10.83;80.42;99006.84;6241687;23;20419;-77
2021/12/25 13:10:39;;;;;;;9.52;2.65;;;;;;;10.80;80.25;99001.97;6243380;23;20005;-75
2021/12/25 13:13:12;;;;;;;4.30;2.25;;;;;;;10.81;79.86;99004.41;6218343;23;20074;-76
2021/12/25 13:15:49;;;;;;;5.65;2.28;;;;;;;10.70;80.43;98986.56;6217766;23;20027;-76
2021/12/25 13:18:16;;;;;;;5.32;2.60;;;;;;;10.70;80.24;98974.84;6244657;23;20075;-76
2021/12/25 13:20:48;;;;;;;7.97;2.35;;;;;;;10.79;80.68;98986.69;6218506;23;20403;-76
2021/12/25 13:23:55;;;;;;;3.30;1.92;;;;;;;10.90;80.65;99004.53;6218157;23;20010;-76
2021/12/25 13:26:33;;;;;;;2.20;1.83;;;;;;;10.94;80.71;99005.53;6182910;23;20004;-75
2021/12/25 13:29:22;;;;;;;2.20;2.00;;;;;;;10.99;80.70;99000.00;6217144;23;20364;-77
2021/12/25 13:31:48;;;;;;;9.93;2.28;;;;;;;10.88;79.95;98987.63;6219783;23;20000;-77
2021/12/25 13:34:36;;;;;;;5.30;1.92;;;;;;;11.02;80.41;99008.69;6245749;23;20074;-78
2021/12/25 13:37:16;;;;;;;;;;;;;;;;;;;;;